Time;durP1;ratioP1;P1;durP2;ratioP2;P2;SDS_P1;SDS_P2;PMS_P1;PMS_P2;Temp;Humidity;BMP_temperature;BMP_pressure;BME280_temperature;BME280_humidity;BME280_pressure;Samples;Min_cycle;Max_cycle;Signal;HPM_P1;HPM_P2
2023/06/20 00:00:37;;;;;;;16.20;8.38;;;24.90;99.90;;;;;;4948661;23;20346;-57
2023/06/20 00:03:03;;;;;;;21.00;8.43;;;24.80;99.90;;;;;;4954034;29;20040;-56
2023/06/20 00:05:29;;;;;;;17.63;8.45;;;24.80;99.90;;;;;;4934374;29;20398;-57
2023/06/20 00:07:55;;;;;;;20.48;9.10;;;24.80;99.90;;;;;;4934387;29;20020;-56
2023/06/20 00:10:21;;;;;;;19.83;8.38;;;24.80;99.90;;;;;;4934318;29;20042;-56
2023/06/20 00:12:47;;;;;;;22.15;9.02;;;24.80;99.90;;;;;;4946105;29;20098;-57
2023/06/20 00:15:13;;;;;;;25.80;9.18;;;24.90;99.90;;;;;;4932030;29;20043;-56
2023/06/20 00:17:38;;;;;;;16.70;8.57;;;24.90;99.90;;;;;;4934556;29;20024;-57
2023/06/20 00:20:11;;;;;;;16.15;8.25;;;24.90;99.90;;;;;;4938366;29;20071;-56
2023/06/20 00:22:36;;;;;;;18.08;9.20;;;24.90;99.90;;;;;;4944100;29;20015;-56
2023/06/20 00:25:04;;;;;;;15.02;9.27;;;24.90;99.90;;;;;;4937045;29;20067;-56
2023/06/20 00:27:30;;;;;;;20.02;9.25;;;24.90;99.90;;;;;;4945773;28;20107;-56
2023/06/20 00:29:57;;;;;;;19.73;8.30;;;24.90;99.90;;;;;;4952222;29;20090;-57
2023/06/20 00:32:22;;;;;;;19.83;9.48;;;25.00;99.90;;;;;;4956899;29;20461;-57
2023/06/20 00:34:48;;;;;;;21.95;10.00;;;24.90;99.90;;;;;;4942345;29;20043;-57
2023/06/20 00:37:14;;;;;;;18.70;9.13;;;24.90;99.90;;;;;;4948495;29;20035;-57
2023/06/20 00:39:40;;;;;;;20.58;9.95;;;24.90;99.90;;;;;;4937942;29;20071;-57
2023/06/20 00:42:17;;;;;;;19.88;9.15;;;24.90;99.90;;;;;;4944702;29;20023;-56
2023/06/20 00:44:42;;;;;;;24.70;10.40;;;24.90;99.90;;;;;;4941749;28;20019;-57
2023/06/20 00:47:09;;;;;;;21.70;9.52;;;24.90;99.90;;;;;;4936526;29;20031;-55
2023/06/20 00:49:35;;;;;;;21.58;9.30;;;24.90;99.90;;;;;;4950597;29;20109;-57
2023/06/20 00:52:04;;;;;;;18.00;10.35;;;24.80;99.90;;;;;;4937444;29;20087;-57
2023/06/20 00:54:31;;;;;;;18.70;10.23;;;24.80;99.90;;;;;;4937470;29;20486;-56
2023/06/20 00:56:57;;;;;;;18.83;9.25;;;24.80;99.90;;;;;;4956090;29;20109;-56
2023/06/20 00:59:23;;;;;;;16.15;9.70;;;24.80;99.90;;;;;;4943653;29;20075;-56
2023/06/20 01:01:48;;;;;;;17.23;9.45;;;24.80;99.90;;;;;;4961355;23;20059;-52
2023/06/20 01:04:14;;;;;;;22.60;10.38;;;24.80;99.90;;;;;;4945505;29;20483;-52
2023/06/20 01:06:47;;;;;;;18.50;9.10;;;24.80;99.90;;;;;;4936847;29;20532;-52
2023/06/20 01:09:31;;;;;;;15.73;8.60;;;24.80;99.90;;;;;;4935811;29;20122;-52
2023/06/20 01:12:05;;;;;;;17.80;8.93;;;24.70;99.90;;;;;;4943223;29;20376;-52
2023/06/20 01:14:36;;;;;;;18.15;8.82;;;24.70;99.90;;;;;;4942292;29;20071;-52
2023/06/20 01:17:26;;;;;;;20.23;9.65;;;24.70;99.90;;;;;;4937034;29;20493;-52
2023/06/20 01:20:13;;;;;;;17.67;9.45;;;24.70;99.90;;;;;;4931026;29;20083;-52
2023/06/20 01:22:59;;;;;;;18.40;9.20;;;24.60;99.90;;;;;;4937124;29;20031;-52
2023/06/20 01:25:46;;;;;;;21.50;9.80;;;24.60;99.90;;;;;;4943028;29;20034;-52
2023/06/20 01:28:30;;;;;;;22.30;8.40;;;24.60;99.90;;;;;;4939336;29;20138;-52
2023/06/20 01:31:04;;;;;;;13.88;8.15;;;24.50;99.90;;;;;;4936838;29;20037;-52
2023/06/20 01:34:03;;;;;;;17.63;8.95;;;24.50;99.90;;;;;;4949837;29;20012;-52
2023/06/20 01:36:35;;;;;;;14.48;7.68;;;24.50;99.90;;;;;;4949335;29;20059;-52
2023/06/20 01:39:17;;;;;;;18.67;8.45;;;24.50;99.90;;;;;;4935723;29;20024;-52
2023/06/20 01:41:46;;;;;;;18.67;8.90;;;24.40;99.90;;;;;;4939971;29;20375;-52
2023/06/20 01:44:14;;;;;;;18.45;9.43;;;24.40;99.90;;;;;;4955524;28;20027;-53
2023/06/20 01:46:40;;;;;;;21.95;9.13;;;24.30;99.90;;;;;;4951619;28;20114;-52
2023/06/20 01:49:08;;;;;;;22.23;8.43;;;24.20;99.90;;;;;;4945597;29;20031;-52
2023/06/20 01:51:34;;;;;;;24.40;10.07;;;24.20;99.90;;;;;;4939720;29;20019;-52
2023/06/20 01:54:03;;;;;;;17.23;8.10;;;24.20;99.90;;;;;;4936135;29;20534;-52
2023/06/20 01:56:31;;;;;;;22.33;9.75;;;24.20;99.90;;;;;;4936256;29;20059;-52
2023/06/20 01:59:00;;;;;;;19.63;9.88;;;24.20;99.90;;;;;;4936258;29;20061;-52
2023/06/20 02:01:27;;;;;;;22.17;9.77;;;24.20;99.90;;;;;;4937236;29;20083;-52
2023/06/20 02:03:55;;;;;;;18.50;8.70;;;24.20;99.90;;;;;;4955268;28;20023;-53
2023/06/20 02:06:22;;;;;;;26.90;10.93;;;24.20;99.90;;;;;;4941117;29;20106;-53
2023/06/20 02:08:49;;;;;;;22.83;10.43;;;24.10;99.90;;;;;;4942408;29;20490;-53
2023/06/20 02:11:15;;;;;;;18.70;8.65;;;24.10;99.90;;;;;;4942342;29;20032;-52
2023/06/20 02:13:42;;;;;;;18.90;8.88;;;24.10;99.90;;;;;;4942971;29;20051;-52
2023/06/20 02:16:10;;;;;;;27.02;10.23;;;24.10;99.90;;;;;;4943328;29;20090;-52
2023/06/20 02:18:36;;;;;;;25.23;10.88;;;24.10;99.90;;;;;;4935934;29;20028;-53
2023/06/20 02:21:09;;;;;;;22.08;10.23;;;24.10;99.90;;;;;;4935980;29;20020;-53
2023/06/20 02:23:37;;;;;;;23.52;10.50;;;24.10;99.90;;;;;;4935659;29;20035;-53
2023/06/20 02:26:08;;;;;;;17.25;9.15;;;24.10;99.90;;;;;;4947838;29;20027;-53
2023/06/20 02:28:38;;;;;;;16.17;9.18;;;24.20;99.90;;;;;;4950276;29;20028;-53
2023/06/20 02:31:08;;;;;;;17.38;9.27;;;24.20;99.90;;;;;;4947064;29;20472;-53
2023/06/20 02:33:36;;;;;;;14.52;8.95;;;24.20;99.90;;;;;;4936612;29;20043;-53
2023/06/20 02:36:03;;;;;;;21.55;9.27;;;24.10;99.90;;;;;;4946342;29;20396;-53
2023/06/20 02:38:31;;;;;;;;;;;24.10;99.90;;;;;;4937671;29;20428;-52
2023/06/20 02:40:57;;;;;;;19.88;9.20;;;24.10;99.90;;;;;;4935639;29;19954;-52
2023/06/20 02:43:23;;;;;;;23.50;9.95;;;24.10;99.90;;;;;;4951536;29;20031;-53
2023/06/20 02:45:58;;;;;;;19.38;8.85;;;24.10;99.90;;;;;;4954347;29;20031;-53
2023/06/20 02:48:28;;;;;;;20.73;9.32;;;24.10;99.90;;;;;;4936908;29;20024;-53
2023/06/20 02:51:01;;;;;;;26.08;10.13;;;24.10;99.90;;;;;;4935268;29;20094;-53
2023/06/20 02:53:39;;;;;;;22.77;9.85;;;24.10;99.90;;;;;;4935013;29;20028;-53
2023/06/20 02:56:12;;;;;;;24.73;9.90;;;24.10;99.90;;;;;;4946192;29;20043;-53
2023/06/20 02:58:43;;;;;;;18.67;9.57;;;24.10;99.90;;;;;;4935931;29;20031;-53
2023/06/20 03:01:11;;;;;;;17.83;9.05;;;24.10;99.90;;;;;;4953660;23;20134;-47
2023/06/20 03:03:43;;;;;;;17.25;9.05;;;24.10;99.90;;;;;;4936558;28;20039;-48
2023/06/20 03:06:14;;;;;;;19.17;8.38;;;24.10;99.90;;;;;;4947254;29;20031;-47
2023/06/20 03:08:43;;;;;;;22.10;8.88;;;24.10;99.90;;;;;;4948002;29;20079;-47
2023/06/20 03:11:09;;;;;;;18.27;8.98;;;24.10;99.90;;;;;;4934994;29;20028;-47
2023/06/20 03:13:35;;;;;;;14.20;7.63;;;24.20;99.90;;;;;;4936105;29;20039;-46
2023/06/20 03:16:01;;;;;;;10.77;6.25;;;24.20;99.90;;;;;;4943820;29;20043;-47
2023/06/20 03:18:29;;;;;;;18.73;9.40;;;24.20;99.90;;;;;;4934967;29;20024;-48
2023/06/20 03:20:55;;;;;;;;;;;24.20;99.90;;;;;;4934274;29;20030;-48
2023/06/20 03:23:21;;;;;;;24.50;10.95;;;24.10;99.90;;;;;;4946404;29;20425;-47
2023/06/20 03:25:46;;;;;;;25.17;10.35;;;24.10;99.90;;;;;;4933888;29;20039;-47
2023/06/20 03:28:12;;;;;;;24.55;10.50;;;23.90;99.90;;;;;;4936519;29;20083;-47
2023/06/20 03:30:38;;;;;;;19.30;10.82;;;23.80;99.90;;;;;;4953986;29;20042;-47
2023/06/20 03:33:04;;;;;;;20.80;11.10;;;23.70;99.90;;;;;;4938438;29;20496;-47
2023/06/20 03:35:33;;;;;;;26.52;11.90;;;23.70;99.90;;;;;;4940832;29;20035;-46
2023/06/20 03:37:59;;;;;;;21.50;10.60;;;23.60;99.90;;;;;;4939665;29;20504;-47
2023/06/20 03:40:25;;;;;;;24.33;10.40;;;23.60;99.90;;;;;;4934868;29;20058;-46
2023/06/20 03:42:51;;;;;;;27.58;11.38;;;23.60;99.90;;;;;;4944921;29;20038;-47
2023/06/20 03:45:17;;;;;;;21.13;9.98;;;23.60;99.90;;;;;;4952712;29;20030;-46
2023/06/20 03:47:43;;;;;;;19.52;9.77;;;23.60;99.90;;;;;;4942140;29;20496;-47
2023/06/20 03:50:09;;;;;;;25.50;10.10;;;23.60;99.90;;;;;;4947444;29;20094;-46
2023/06/20 03:52:35;;;;;;;22.75;10.27;;;23.60;99.90;;;;;;4933154;29;20032;-46
2023/06/20 03:55:00;;;;;;;20.85;9.32;;;23.60;99.90;;;;;;4934724;29;20030;-47
2023/06/20 03:57:26;;;;;;;25.27;11.00;;;23.60;99.90;;;;;;4934691;29;20043;-47
2023/06/20 03:59:52;;;;;;;26.33;9.98;;;23.60;99.90;;;;;;4938947;29;20402;-48
2023/06/20 04:02:18;;;;;;;22.25;9.63;;;23.60;99.90;;;;;;4945691;28;20075;-47
2023/06/20 04:04:49;;;;;;;16.35;9.32;;;23.70;99.90;;;;;;4938833;29;20067;-48
2023/06/20 04:07:18;;;;;;;16.60;8.43;;;23.70;99.90;;;;;;4932395;29;20102;-47
2023/06/20 04:09:45;;;;;;;18.13;8.70;;;23.70;99.90;;;;;;4954656;29;20483;-47
2023/06/20 04:12:10;;;;;;;26.07;9.67;;;23.80;99.90;;;;;;4937206;29;20091;-47
2023/06/20 04:14:36;;;;;;;19.30;9.55;;;23.80;99.90;;;;;;4938036;29;20433;-46
2023/06/20 04:17:02;;;;;;;17.58;8.90;;;23.80;99.90;;;;;;4938083;29;20504;-46
2023/06/20 04:19:28;;;;;;;20.67;8.60;;;23.80;99.90;;;;;;4952829;28;20110;-47
2023/06/20 04:21:54;;;;;;;21.50;9.02;;;23.80;99.90;;;;;;4943167;29;20110;-47
2023/06/20 04:24:19;;;;;;;23.50;9.82;;;23.80;99.90;;;;;;4943328;29;20055;-48
2023/06/20 04:26:45;;;;;;;20.42;8.93;;;23.80;99.90;;;;;;4956313;29;20480;-47
2023/06/20 04:29:11;;;;;;;15.13;8.10;;;23.80;99.90;;;;;;4945762;29;20110;-46
2023/06/20 04:31:37;;;;;;;16.17;8.63;;;23.80;99.90;;;;;;4955749;29;20035;-46
2023/06/20 04:34:02;;;;;;;27.33;10.45;;;23.80;99.90;;;;;;4945926;29;20043;-46
2023/06/20 04:36:29;;;;;;;20.85;9.68;;;23.90;99.90;;;;;;4937829;29;20071;-46
2023/06/20 04:38:55;;;;;;;19.75;8.65;;;23.90;99.90;;;;;;4937833;29;20027;-46
2023/06/20 04:41:21;;;;;;;21.83;9.10;;;23.90;99.90;;;;;;4952217;29;20039;-46
2023/06/20 04:43:47;;;;;;;14.50;8.18;;;23.90;99.90;;;;;;4936883;29;20027;-47
2023/06/20 04:46:13;;;;;;;17.85;9.00;;;23.90;99.90;;;;;;4937741;29;20027;-45
2023/06/20 04:48:39;;;;;;;18.90;9.05;;;23.90;99.90;;;;;;4950148;29;20011;-46
2023/06/20 04:51:07;;;;;;;18.20;8.68;;;23.90;99.90;;;;;;4937501;29;20388;-47
2023/06/20 04:53:34;;;;;;;21.38;9.48;;;23.90;99.90;;;;;;4937504;29;20027;-47
2023/06/20 04:56:00;;;;;;;23.67;9.77;;;23.90;99.90;;;;;;4936361;29;20060;-48
2023/06/20 04:58:28;;;;;;;23.05;9.15;;;24.00;99.90;;;;;;4936285;29;20032;-48
2023/06/20 05:00:57;;;;;;;16.10;8.27;;;24.00;99.90;;;;;;4945805;29;20051;-48
2023/06/20 05:03:24;;;;;;;22.08;7.97;;;24.00;99.90;;;;;;4952442;29;20024;-48
2023/06/20 05:05:50;;;;;;;19.88;7.88;;;24.00;99.90;;;;;;4937909;29;20366;-47
2023/06/20 05:08:16;;;;;;;17.95;8.23;;;24.00;99.90;;;;;;4950254;29;20494;-48
2023/06/20 05:10:42;;;;;;;16.70;8.45;;;24.00;99.90;;;;;;4937272;29;20111;-47
2023/06/20 05:13:08;;;;;;;21.00;8.60;;;24.10;99.90;;;;;;4950205;28;20055;-47
2023/06/20 05:15:34;;;;;;;16.25;8.82;;;24.10;99.90;;;;;;4948701;29;20038;-47
2023/06/20 05:18:00;;;;;;;18.08;9.40;;;24.10;99.90;;;;;;4935925;29;20461;-46
2023/06/20 05:20:26;;;;;;;19.17;8.55;;;24.10;99.90;;;;;;4937350;29;20024;-46
2023/06/20 05:22:51;;;;;;;11.57;7.63;;;24.10;99.90;;;;;;4937155;29;20094;-46
2023/06/20 05:25:17;;;;;;;20.92;8.77;;;24.20;99.90;;;;;;4937203;29;20024;-48
2023/06/20 05:27:43;;;;;;;14.88;8.82;;;24.20;99.90;;;;;;4946832;29;20089;-47
2023/06/20 05:30:09;;;;;;;15.32;8.00;;;24.20;99.90;;;;;;4943058;29;20085;-47
2023/06/20 05:32:35;;;;;;;15.23;8.50;;;24.20;99.90;;;;;;4945091;29;20381;-47
2023/06/20 05:35:01;;;;;;;19.38;8.18;;;24.30;99.90;;;;;;4948285;29;20023;-47
2023/06/20 05:37:30;;;;;;;18.77;9.25;;;24.30;99.90;;;;;;4936716;29;20034;-47
2023/06/20 05:39:57;;;;;;;15.32;9.10;;;24.30;99.90;;;;;;4936841;29;20028;-47
2023/06/20 05:42:23;;;;;;;15.35;8.18;;;24.30;99.90;;;;;;4944351;29;20384;-47
2023/06/20 05:44:48;;;;;;;23.92;9.20;;;24.30;99.90;;;;;;4940471;29;20030;-47
2023/06/20 05:47:17;;;;;;;18.88;8.93;;;24.30;99.90;;;;;;4936603;29;20022;-47
2023/06/20 05:49:47;;;;;;;20.15;9.65;;;24.40;99.90;;;;;;4936582;29;20114;-46
2023/06/20 05:52:16;;;;;;;26.25;15.93;;;24.40;99.90;;;;;;4942932;29;20034;-47
2023/06/20 05:54:45;;;;;;;16.95;9.55;;;24.40;99.90;;;;;;4953959;29;20022;-47
2023/06/20 05:57:11;;;;;;;14.20;7.72;;;24.50;99.90;;;;;;4936338;29;20036;-47
2023/06/20 05:59:37;;;;;;;18.73;9.52;;;24.50;99.90;;;;;;4936303;29;20020;-48
2023/06/20 06:02:05;;;;;;;19.30;11.55;;;24.50;99.90;;;;;;4936388;29;20519;-46
2023/06/20 06:04:31;;;;;;;19.17;8.70;;;24.50;99.90;;;;;;4935083;29;20020;-46
2023/06/20 06:06:57;;;;;;;19.08;8.10;;;24.50;99.90;;;;;;4948805;29;20022;-47
2023/06/20 06:09:23;;;;;;;16.30;8.95;;;24.50;99.90;;;;;;4936519;29;20454;-47
2023/06/20 06:11:49;;;;;;;16.17;7.03;;;24.50;99.90;;;;;;4938038;29;20027;-48
2023/06/20 06:14:15;;;;;;;17.48;7.97;;;24.60;99.90;;;;;;4945765;29;20031;-46
2023/06/20 06:16:40;;;;;;;13.57;7.05;;;24.60;99.90;;;;;;4934617;29;20531;-46
2023/06/20 06:19:06;;;;;;;12.02;6.03;;;24.60;99.90;;;;;;4944165;29;20066;-45
2023/06/20 06:21:32;;;;;;;11.63;8.02;;;24.70;99.90;;;;;;4940613;29;20045;-46
2023/06/20 06:23:57;;;;;;;13.95;8.07;;;24.60;99.90;;;;;;4934398;29;20380;-46
2023/06/20 06:26:23;;;;;;;14.75;6.97;;;24.70;99.90;;;;;;4948781;29;20464;-47
2023/06/20 06:28:49;;;;;;;18.42;10.23;;;24.70;99.90;;;;;;4948887;29;20202;-46
2023/06/20 06:31:20;;;;;;;26.02;14.55;;;24.70;99.90;;;;;;4935753;29;20020;-46
2023/06/20 06:33:46;;;;;;;13.13;7.20;;;24.70;99.90;;;;;;4936147;29;20409;-46
2023/06/20 06:36:13;;;;;;;14.00;8.35;;;24.70;99.90;;;;;;4935665;29;20042;-46
2023/06/20 06:38:40;;;;;;;18.53;8.27;;;24.70;99.90;;;;;;4948016;29;20062;-46
2023/06/20 06:41:06;;;;;;;14.75;7.28;;;24.80;99.90;;;;;;4929791;29;20274;-46
2023/06/20 06:43:32;;;;;;;18.23;8.15;;;24.80;99.90;;;;;;4937008;29;20106;-46
2023/06/20 06:45:58;;;;;;;15.00;8.02;;;24.80;99.90;;;;;;4943881;29;20552;-46
2023/06/20 06:48:24;;;;;;;14.48;7.28;;;24.90;99.90;;;;;;4940497;29;20031;-46
2023/06/20 06:50:49;;;;;;;16.48;7.88;;;24.90;99.90;;;;;;4945448;29;20167;-47
2023/06/20 06:53:15;;;;;;;13.45;7.78;;;24.90;99.90;;;;;;4935299;29;20055;-46
2023/06/20 06:55:47;;;;;;;16.83;6.63;;;24.90;99.90;;;;;;4941526;29;20431;-47
2023/06/20 06:58:13;;;;;;;16.58;8.57;;;24.90;99.90;;;;;;4939855;29;20063;-46
2023/06/20 07:00:38;;;;;;;19.63;8.18;;;24.90;99.90;;;;;;4934075;29;20420;-47
2023/06/20 07:03:06;;;;;;;15.88;7.82;;;25.00;99.90;;;;;;4934208;29;20039;-47
2023/06/20 07:05:32;;;;;;;;;;;25.00;99.90;;;;;;4937449;29;20031;-46
2023/06/20 07:07:57;;;;;;;16.75;8.07;;;25.00;99.90;;;;;;4952894;29;20054;-46
2023/06/20 07:10:23;;;;;;;16.63;7.35;;;25.00;99.90;;;;;;4950041;29;20027;-46
2023/06/20 07:12:49;;;;;;;14.75;7.25;;;25.00;99.90;;;;;;4934210;29;20024;-46
2023/06/20 07:15:15;;;;;;;25.20;9.15;;;25.00;99.90;;;;;;4935030;29;20026;-46
2023/06/20 07:17:40;;;;;;;13.27;6.95;;;25.00;99.90;;;;;;4934119;29;20039;-46
2023/06/20 07:20:09;;;;;;;11.38;6.20;;;25.00;99.90;;;;;;4930663;29;20052;-46
2023/06/20 07:22:35;;;;;;;23.10;8.90;;;25.10;99.90;;;;;;4933770;29;20400;-47
2023/06/20 07:25:01;;;;;;;30.98;8.18;;;25.10;99.90;;;;;;4934895;29;20024;-46
2023/06/20 07:27:26;;;;;;;21.98;8.63;;;25.10;99.90;;;;;;4935395;29;20503;-47
2023/06/20 07:29:52;;;;;;;29.35;10.63;;;25.20;99.90;;;;;;4935127;29;20031;-46
2023/06/20 07:32:18;;;;;;;19.70;9.00;;;25.20;99.90;;;;;;4947366;29;20023;-47
2023/06/20 07:34:44;;;;;;;19.65;8.02;;;25.20;99.90;;;;;;4934714;29;20479;-48
2023/06/20 07:37:10;;;;;;;17.77;8.48;;;25.20;99.90;;;;;;4937988;29;20043;-47
2023/06/20 07:39:40;;;;;;;18.00;7.32;;;25.20;99.90;;;;;;4954114;29;20107;-54
2023/06/20 07:42:06;;;;;;;14.15;7.18;;;25.20;99.90;;;;;;4939623;29;20382;-47
2023/06/20 07:44:32;;;;;;;12.45;7.00;;;25.30;99.90;;;;;;4941794;29;20059;-47
2023/06/20 07:46:57;;;;;;;11.75;6.93;;;25.30;99.90;;;;;;4935022;29;20027;-47
2023/06/20 07:49:23;;;;;;;12.38;6.80;;;25.30;99.90;;;;;;4934672;29;20020;-47
2023/06/20 07:51:49;;;;;;;17.23;7.43;;;25.30;99.90;;;;;;4950044;29;20244;-48
2023/06/20 07:54:15;;;;;;;12.50;6.30;;;25.40;99.90;;;;;;4953812;29;20019;-47
2023/06/20 07:56:41;;;;;;;15.88;7.68;;;25.40;99.90;;;;;;4950880;29;20042;-46
2023/06/20 07:59:07;;;;;;;10.98;5.55;;;25.40;99.90;;;;;;4934940;29;20492;-47
2023/06/20 08:01:32;;;;;;;10.77;5.15;;;25.40;99.90;;;;;;4934187;29;20062;-46
2023/06/20 08:03:58;;;;;;;14.38;5.95;;;25.40;99.90;;;;;;4940896;29;20024;-46
2023/06/20 08:06:24;;;;;;;10.30;4.63;;;25.40;99.90;;;;;;4939576;29;20567;-46
2023/06/20 08:08:50;;;;;;;6.43;4.07;;;25.40;99.90;;;;;;4934563;29;20327;-47
2023/06/20 08:11:21;;;;;;;9.13;4.28;;;25.40;99.90;;;;;;4934453;29;20048;-47
2023/06/20 08:13:46;;;;;;;9.18;4.20;;;25.40;99.90;;;;;;4951532;29;20506;-46
2023/06/20 08:16:13;;;;;;;18.95;4.93;;;25.40;99.90;;;;;;4940076;29;20126;-46
2023/06/20 08:18:38;;;;;;;6.70;4.38;;;25.40;99.90;;;;;;4945820;29;20083;-47
2023/06/20 08:21:04;;;;;;;10.52;5.20;;;25.40;99.90;;;;;;4933203;29;20028;-47
2023/06/20 08:23:30;;;;;;;7.43;4.72;;;25.40;99.90;;;;;;4936622;29;20031;-47
2023/06/20 08:25:57;;;;;;;11.93;4.53;;;25.50;99.90;;;;;;4945122;29;20020;-47
2023/06/20 08:28:23;;;;;;;20.80;5.00;;;25.50;99.90;;;;;;4932873;29;20031;-47
2023/06/20 08:30:50;;;;;;;11.23;4.30;;;25.60;99.90;;;;;;4934249;29;20030;-47
2023/06/20 08:33:16;;;;;;;6.38;4.22;;;25.60;99.90;;;;;;4934210;29;20031;-47
2023/06/20 08:35:41;;;;;;;7.07;3.97;;;25.60;99.90;;;;;;4934367;29;20039;-47
2023/06/20 08:38:07;;;;;;;10.32;4.50;;;25.60;99.90;;;;;;4946640;29;20023;-46
2023/06/20 08:40:34;;;;;;;5.68;3.92;;;25.60;99.90;;;;;;4952068;29;20027;-46
2023/06/20 08:43:00;;;;;;;5.35;3.72;;;25.70;99.90;;;;;;4952423;29;20039;-47
2023/06/20 08:45:27;;;;;;;6.15;4.15;;;25.70;99.90;;;;;;4940171;29;20027;-47
2023/06/20 08:47:58;;;;;;;8.67;4.63;;;25.70;99.90;;;;;;4943309;29;20031;-46
2023/06/20 08:50:25;;;;;;;7.85;3.80;;;25.70;99.90;;;;;;4937471;29;20262;-47
2023/06/20 08:52:54;;;;;;;7.43;3.80;;;25.70;99.90;;;;;;4937501;29;20499;-46
2023/06/20 08:55:20;;;;;;;6.18;3.63;;;25.80;99.90;;;;;;4937345;29;20031;-48
2023/06/20 08:57:47;;;;;;;5.15;3.20;;;25.80;99.90;;;;;;4947228;29;20031;-47
2023/06/20 09:00:23;;;;;;;8.13;3.28;;;25.80;99.90;;;;;;4940255;29;20028;-47
2023/06/20 09:02:53;;;;;;;8.93;3.85;;;25.80;99.90;;;;;;4948326;29;20568;-47
2023/06/20 09:05:19;;;;;;;9.82;3.50;;;25.80;99.90;;;;;;4940302;29;20028;-47
2023/06/20 09:07:45;;;;;;;13.50;3.72;;;25.80;99.90;;;;;;4937466;29;20023;-47
2023/06/20 09:10:16;;;;;;;7.07;3.47;;;25.80;99.90;;;;;;4950482;29;20027;-47
2023/06/20 09:12:50;;;;;;;8.13;3.78;;;25.80;99.90;;;;;;4955220;29;20023;-46
2023/06/20 09:15:19;;;;;;;5.68;3.40;;;25.90;99.90;;;;;;4943134;29;20020;-46
2023/06/20 09:17:48;;;;;;;7.40;3.50;;;25.90;99.90;;;;;;4947272;29;20028;-47
2023/06/20 09:20:14;;;;;;;5.95;3.38;;;25.90;99.90;;;;;;4935543;29;20024;-47
2023/06/20 09:22:41;;;;;;;7.57;3.60;;;25.90;99.90;;;;;;4935665;29;20038;-47
2023/06/20 09:25:08;;;;;;;8.82;3.08;;;25.90;99.90;;;;;;4951500;29;20027;-47
2023/06/20 09:27:41;;;;;;;10.65;3.25;;;26.00;99.90;;;;;;4948154;28;20016;-47
2023/06/20 09:30:07;;;;;;;8.80;2.80;;;26.10;99.90;;;;;;4938236;29;20038;-47
2023/06/20 09:32:35;;;;;;;8.10;2.63;;;26.10;99.90;;;;;;4948428;28;20459;-47
2023/06/20 09:35:04;;;;;;;;;;;26.10;99.90;;;;;;4939277;29;20027;-48
2023/06/20 09:37:37;;;;;;;3.67;2.70;;;26.20;99.90;;;;;;4948716;29;20367;-47
2023/06/20 09:40:13;;;;;;;8.65;3.20;;;26.20;99.90;;;;;;4936870;29;20044;-47
2023/06/20 09:42:41;;;;;;;7.47;2.70;;;26.20;99.90;;;;;;4936858;29;20549;-47
2023/06/20 09:45:08;;;;;;;11.18;2.80;;;26.30;99.90;;;;;;4949731;29;20433;-47
2023/06/20 09:47:38;;;;;;;6.38;3.38;;;26.30;99.90;;;;;;4947622;29;20066;-48
2023/06/20 09:50:07;;;;;;;9.73;4.85;;;26.30;99.90;;;;;;4936594;29;20111;-47
2023/06/20 09:52:38;;;;;;;5.85;3.13;;;26.30;99.90;;;;;;4936746;29;20381;-47
2023/06/20 09:55:09;;;;;;;3.40;2.20;;;26.30;99.90;;;;;;4936783;29;20020;-47
2023/06/20 09:57:41;;;;;;;5.90;2.20;;;26.40;99.90;;;;;;4935440;29;20126;-47
2023/06/20 10:00:14;;;;;;;3.15;1.77;;;26.40;99.90;;;;;;4939517;29;20023;-47
2023/06/20 10:02:48;;;;;;;7.95;2.40;;;26.40;99.90;;;;;;4943721;28;20056;-47
2023/06/20 10:05:19;;;;;;;5.82;2.13;;;26.40;99.90;;;;;;4950315;29;20027;-47
2023/06/20 10:07:46;;;;;;;5.03;2.25;;;26.40;99.90;;;;;;4936109;29;20031;-47
2023/06/20 10:10:13;;;;;;;3.15;1.90;;;26.50;99.90;;;;;;4950505;29;20016;-47
2023/06/20 10:12:40;;;;;;;;;;;26.50;99.90;;;;;;4936703;29;20034;-48
2023/06/20 10:15:07;;;;;;;5.13;1.90;;;26.50;99.90;;;;;;4935984;29;19913;-47
2023/06/20 10:17:38;;;;;;;;;;;26.50;99.90;;;;;;4944462;29;20518;-47
2023/06/20 10:20:07;;;;;;;4.90;1.90;;;26.60;99.90;;;;;;4951923;29;19907;-47
2023/06/20 10:22:48;;;;;;;6.32;1.85;;;26.60;99.90;;;;;;4943578;29;20055;-47
2023/06/20 10:25:16;;;;;;;3.55;1.73;;;26.50;99.90;;;;;;4951577;28;20032;-47
2023/06/20 10:27:59;;;;;;;4.55;1.98;;;26.60;99.90;;;;;;4934855;29;20070;-47
2023/06/20 10:30:46;;;;;;;2.83;1.90;;;26.60;99.90;;;;;;4935564;29;20051;-47
2023/06/20 10:33:13;;;;;;;3.67;1.70;;;26.60;99.90;;;;;;4935747;29;20480;-47
2023/06/20 10:35:49;;;;;;;6.60;1.80;;;26.60;99.90;;;;;;4934322;29;20116;-46
2023/06/20 10:38:15;;;;;;;14.05;2.90;;;26.60;99.90;;;;;;4946915;29;20647;-47
2023/06/20 10:40:41;;;;;;;10.25;2.25;;;26.60;99.90;;;;;;4935686;29;20019;-47
2023/06/20 10:43:15;;;;;;;11.82;2.30;;;26.70;99.90;;;;;;4947915;29;20023;-47
2023/06/20 10:45:53;;;;;;;5.25;2.15;;;26.70;99.90;;;;;;4947730;29;20079;-47
2023/06/20 10:48:20;;;;;;;9.25;2.80;;;26.70;99.90;;;;;;4936131;29;20047;-47
2023/06/20 10:50:46;;;;;;;6.75;2.28;;;26.70;99.90;;;;;;4947498;29;20044;-47
2023/06/20 10:53:13;;;;;;;7.10;2.17;;;26.70;99.90;;;;;;4947585;29;20022;-47
2023/06/20 10:55:39;;;;;;;10.70;2.90;;;26.70;99.90;;;;;;4948693;29;20040;-47
2023/06/20 10:58:05;;;;;;;9.63;2.42;;;26.70;99.90;;;;;;4947771;29;20031;-46
2023/06/20 11:00:31;;;;;;;15.65;2.63;;;26.70;99.90;;;;;;4941243;29;20027;-46
2023/06/20 11:02:57;;;;;;;4.90;2.42;;;26.70;99.90;;;;;;4942647;29;20039;-47
2023/06/20 11:05:26;;;;;;;9.82;3.25;;;26.60;99.90;;;;;;4946619;29;20030;-46
2023/06/20 11:07:59;;;;;;;8.23;3.90;;;26.60;99.90;;;;;;4935116;29;20046;-46
2023/06/20 11:10:36;;;;;;;7.80;2.63;;;26.60;99.90;;;;;;4938725;28;20019;-47
2023/06/20 11:13:04;;;;;;;7.93;2.83;;;26.60;99.90;;;;;;4954406;29;20484;-47
2023/06/20 11:15:35;;;;;;;6.28;2.67;;;26.60;99.90;;;;;;4940925;29;20424;-47
2023/06/20 11:18:08;;;;;;;6.68;2.53;;;26.60;99.90;;;;;;4943463;29;20030;-47
2023/06/20 11:20:36;;;;;;;4.85;2.63;;;26.60;99.90;;;;;;4933905;29;20024;-47
2023/06/20 11:23:10;;;;;;;7.97;4.20;;;26.60;99.90;;;;;;4933655;29;20031;-47
2023/06/20 11:25:38;;;;;;;12.80;5.03;;;26.70;99.90;;;;;;4947873;29;20027;-47
2023/06/20 11:28:08;;;;;;;8.30;3.67;;;26.60;99.90;;;;;;4934941;29;20106;-47
2023/06/20 11:30:36;;;;;;;10.20;3.10;;;26.70;99.90;;;;;;4950869;29;20027;-47
2023/06/20 11:33:05;;;;;;;10.70;3.38;;;26.70;99.90;;;;;;4953977;29;20028;-47
2023/06/20 11:35:46;;;;;;;6.65;2.90;;;26.70;99.90;;;;;;4936791;28;20020;-47
2023/06/20 11:38:17;;;;;;;7.90;4.32;;;26.70;99.90;;;;;;4933766;29;20103;-47
2023/06/20 11:40:45;;;;;;;11.73;4.60;;;26.70;99.90;;;;;;4933457;29;20433;-47
2023/06/20 11:43:27;;;;;;;10.73;4.50;;;26.70;99.90;;;;;;4935165;29;20075;-48
2023/06/20 11:46:02;;;;;;;11.05;2.83;;;26.70;99.90;;;;;;4939487;29;20550;-47
2023/06/20 11:48:28;;;;;;;7.78;2.92;;;26.70;99.90;;;;;;4938793;29;20028;-47
2023/06/20 11:51:05;;;;;;;14.18;4.40;;;26.70;99.90;;;;;;4942144;29;20066;-48
2023/06/20 11:53:36;;;;;;;6.97;3.30;;;26.70;99.90;;;;;;4942976;28;20055;-46
2023/06/20 11:56:11;;;;;;;7.35;3.20;;;26.70;99.90;;;;;;4953749;29;20684;-46
2023/06/20 11:58:45;;;;;;;14.02;7.57;;;26.70;99.90;;;;;;4936194;28;20043;-46
2023/06/20 12:01:14;;;;;;;7.72;4.15;;;26.70;99.90;;;;;;4945583;29;20047;-47
2023/06/20 12:03:42;;;;;;;11.77;5.68;;;26.70;99.90;;;;;;4941013;29;20088;-45
2023/06/20 12:06:31;;;;;;;7.65;2.95;;;26.70;99.90;;;;;;4942101;29;20070;-46
2023/06/20 12:09:08;;;;;;;11.27;2.90;;;26.80;99.90;;;;;;4941353;29;20031;-46
2023/06/20 12:11:44;;;;;;;8.50;2.83;;;26.80;99.90;;;;;;4938390;28;20063;-45
2023/06/20 12:14:10;;;;;;;14.98;3.53;;;26.80;99.90;;;;;;4934594;29;20389;-46
2023/06/20 12:16:36;;;;;;;6.90;2.92;;;26.80;99.90;;;;;;4940841;29;20035;-45
2023/06/20 12:19:02;;;;;;;17.40;6.68;;;26.80;99.90;;;;;;4940250;29;20023;-46
2023/06/20 12:21:28;;;;;;;14.45;4.63;;;26.80;99.90;;;;;;4947408;29;20016;-46
2023/06/20 12:23:53;;;;;;;7.57;2.95;;;26.80;99.90;;;;;;4946324;29;20026;-45
2023/06/20 12:26:19;;;;;;;12.63;3.35;;;26.80;99.90;;;;;;4950110;29;20032;-46
2023/06/20 12:28:45;;;;;;;10.95;3.10;;;26.80;99.90;;;;;;4938159;29;20465;-46
2023/06/20 12:31:12;;;;;;;13.38;3.50;;;26.80;99.90;;;;;;4938195;29;20103;-45
2023/06/20 12:33:38;;;;;;;9.82;3.33;;;26.80;99.90;;;;;;4937976;29;20070;-46
2023/06/20 12:36:05;;;;;;;13.25;3.40;;;26.80;99.90;;;;;;4937780;29;20052;-46
2023/06/20 12:38:31;;;;;;;10.30;4.60;;;26.70;99.90;;;;;;4936532;29;20047;-46
2023/06/20 12:41:00;;;;;;;14.18;6.38;;;26.70;99.90;;;;;;4938063;29;20448;-45
2023/06/20 12:43:26;;;;;;;11.10;4.93;;;26.70;99.90;;;;;;4936620;29;20027;-45
2023/06/20 12:45:58;;;;;;;11.60;5.22;;;26.80;99.90;;;;;;4936595;29;20028;-46